sensor_id;sensor_type;location;lat;lon;timestamp;P1;durP1;ratioP1;P2;durP2;ratioP2
32323;SDS011;25666;44.350;9.222;2023-04-15T00:01:54;30.55;;;2.45;;
32323;SDS011;25666;44.350;9.222;2023-04-15T00:04:19;12.48;;;3.33;;
32323;SDS011;25666;44.350;9.222;2023-04-15T00:06:49;22.20;;;2.38;;
32323;SDS011;25666;44.350;9.222;2023-04-15T00:09:17;15.65;;;2.42;;
32323;SDS011;25666;44.350;9.222;2023-04-15T00:11:43;10.10;;;2.30;;
32323;SDS011;25666;44.350;9.222;2023-04-15T00:14:09;15.48;;;2.10;;
32323;SDS011;25666;44.350;9.222;2023-04-15T00:16:35;7.65;;;2.03;;
32323;SDS011;25666;44.350;9.222;2023-04-15T00:19:01;25.85;;;4.32;;
32323;SDS011;25666;44.350;9.222;2023-04-15T00:21:26;27.42;;;3.65;;
32323;SDS011;25666;44.350;9.222;2023-04-15T00:23:53;11.60;;;2.35;;
32323;SDS011;25666;44.350;9.222;2023-04-15T00:26:18;21.33;;;2.50;;
32323;SDS011;25666;44.350;9.222;2023-04-15T00:28:46;15.25;;;2.97;;
32323;SDS011;25666;44.350;9.222;2023-04-15T00:31:12;15.20;;;3.05;;
32323;SDS011;25666;44.350;9.222;2023-04-15T00:33:38;21.25;;;3.70;;
32323;SDS011;25666;44.350;9.222;2023-04-15T00:36:05;22.70;;;2.85;;
32323;SDS011;25666;44.350;9.222;2023-04-15T00:38:31;17.67;;;3.40;;
32323;SDS011;25666;44.350;9.222;2023-04-15T00:40:57;18.48;;;2.30;;
32323;SDS011;25666;44.350;9.222;2023-04-15T00:43:23;20.83;;;2.67;;
32323;SDS011;25666;44.350;9.222;2023-04-15T00:45:50;30.20;;;4.30;;
32323;SDS011;25666;44.350;9.222;2023-04-15T00:48:16;16.17;;;2.92;;
32323;SDS011;25666;44.350;9.222;2023-04-15T00:50:43;16.17;;;2.53;;
32323;SDS011;25666;44.350;9.222;2023-04-15T00:53:08;6.50;;;1.52;;
32323;SDS011;25666;44.350;9.222;2023-04-15T00:55:34;14.70;;;2.63;;
32323;SDS011;25666;44.350;9.222;2023-04-15T00:58:00;16.13;;;2.78;;
32323;SDS011;25666;44.350;9.222;2023-04-15T01:00:25;17.85;;;2.60;;
32323;SDS011;25666;44.350;9.222;2023-04-15T01:02:51;18.63;;;2.42;;
32323;SDS011;25666;44.350;9.222;2023-04-15T01:05:17;15.38;;;2.58;;
32323;SDS011;25666;44.350;9.222;2023-04-15T01:07:43;15.20;;;2.05;;
32323;SDS011;25666;44.350;9.222;2023-04-15T01:10:09;10.88;;;1.63;;
32323;SDS011;25666;44.350;9.222;2023-04-15T01:12:34;12.55;;;1.92;;
32323;SDS011;25666;44.350;9.222;2023-04-15T01:15:02;7.95;;;1.70;;
32323;SDS011;25666;44.350;9.222;2023-04-15T01:17:28;26.02;;;3.42;;
32323;SDS011;25666;44.350;9.222;2023-04-15T01:19:54;10.18;;;1.73;;
32323;SDS011;25666;44.350;9.222;2023-04-15T01:22:22;18.17;;;3.30;;
32323;SDS011;25666;44.350;9.222;2023-04-15T01:27:39;19.60;;;2.75;;
32323;SDS011;25666;44.350;9.222;2023-04-15T01:30:06;26.73;;;4.30;;
32323;SDS011;25666;44.350;9.222;2023-04-15T01:32:33;15.48;;;2.92;;
32323;SDS011;25666;44.350;9.222;2023-04-15T01:34:58;7.15;;;2.35;;
32323;SDS011;25666;44.350;9.222;2023-04-15T01:37:24;16.67;;;3.30;;
32323;SDS011;25666;44.350;9.222;2023-04-15T01:39:50;14.55;;;2.65;;
32323;SDS011;25666;44.350;9.222;2023-04-15T01:42:16;11.40;;;2.30;;
32323;SDS011;25666;44.350;9.222;2023-04-15T01:44:41;18.67;;;3.70;;
32323;SDS011;25666;44.350;9.222;2023-04-15T01:47:10;11.23;;;2.25;;
32323;SDS011;25666;44.350;9.222;2023-04-15T01:49:36;13.43;;;1.83;;
32323;SDS011;25666;44.350;9.222;2023-04-15T01:52:01;11.15;;;2.03;;
32323;SDS011;25666;44.350;9.222;2023-04-15T01:54:27;19.30;;;2.75;;
32323;SDS011;25666;44.350;9.222;2023-04-15T01:56:52;12.70;;;2.80;;
32323;SDS011;25666;44.350;9.222;2023-04-15T01:59:18;15.18;;;2.13;;
32323;SDS011;25666;44.350;9.222;2023-04-15T02:01:43;10.43;;;2.08;;
32323;SDS011;25666;44.350;9.222;2023-04-15T02:04:09;14.20;;;2.20;;
32323;SDS011;25666;44.350;9.222;2023-04-15T02:06:43;22.80;;;2.77;;
32323;SDS011;25666;44.350;9.222;2023-04-15T02:09:09;12.20;;;1.90;;
32323;SDS011;25666;44.350;9.222;2023-04-15T02:11:34;9.98;;;1.98;;
32323;SDS011;25666;44.350;9.222;2023-04-15T02:14:02;15.48;;;3.25;;
32323;SDS011;25666;44.350;9.222;2023-04-15T02:16:29;21.10;;;2.70;;
32323;SDS011;25666;44.350;9.222;2023-04-15T02:18:56;8.48;;;1.88;;
32323;SDS011;25666;44.350;9.222;2023-04-15T02:21:21;17.55;;;2.28;;
32323;SDS011;25666;44.350;9.222;2023-04-15T02:23:47;10.82;;;1.80;;
32323;SDS011;25666;44.350;9.222;2023-04-15T02:26:12;21.23;;;2.28;;
32323;SDS011;25666;44.350;9.222;2023-04-15T02:28:38;17.10;;;3.05;;
32323;SDS011;25666;44.350;9.222;2023-04-15T02:31:05;11.43;;;2.35;;
32323;SDS011;25666;44.350;9.222;2023-04-15T02:33:31;12.98;;;2.25;;
32323;SDS011;25666;44.350;9.222;2023-04-15T02:35:59;21.95;;;2.13;;
32323;SDS011;25666;44.350;9.222;2023-04-15T02:38:24;9.68;;;2.08;;
32323;SDS011;25666;44.350;9.222;2023-04-15T02:40:50;15.48;;;2.25;;
32323;SDS011;25666;44.350;9.222;2023-04-15T02:43:15;20.52;;;3.65;;
32323;SDS011;25666;44.350;9.222;2023-04-15T02:45:42;22.98;;;4.40;;
32323;SDS011;25666;44.350;9.222;2023-04-15T02:48:08;12.23;;;1.80;;
32323;SDS011;25666;44.350;9.222;2023-04-15T02:50:34;21.27;;;3.47;;
32323;SDS011;25666;44.350;9.222;2023-04-15T02:53:01;11.63;;;1.88;;
32323;SDS011;25666;44.350;9.222;2023-04-15T02:55:28;14.00;;;2.83;;
32323;SDS011;25666;44.350;9.222;2023-04-15T02:57:53;17.13;;;2.13;;
32323;SDS011;25666;44.350;9.222;2023-04-15T03:00:19;10.70;;;1.80;;
32323;SDS011;25666;44.350;9.222;2023-04-15T03:02:46;19.00;;;2.33;;
32323;SDS011;25666;44.350;9.222;2023-04-15T03:05:12;14.65;;;2.88;;
32323;SDS011;25666;44.350;9.222;2023-04-15T03:07:42;11.88;;;2.10;;
32323;SDS011;25666;44.350;9.222;2023-04-15T03:10:07;14.70;;;2.58;;
32323;SDS011;25666;44.350;9.222;2023-04-15T03:12:33;20.35;;;2.15;;
32323;SDS011;25666;44.350;9.222;2023-04-15T03:14:58;12.27;;;2.03;;
32323;SDS011;25666;44.350;9.222;2023-04-15T03:17:32;15.82;;;2.25;;
32323;SDS011;25666;44.350;9.222;2023-04-15T03:19:58;20.42;;;3.05;;
32323;SDS011;25666;44.350;9.222;2023-04-15T03:22:23;9.18;;;1.45;;
32323;SDS011;25666;44.350;9.222;2023-04-15T03:24:51;18.92;;;3.15;;
32323;SDS011;25666;44.350;9.222;2023-04-15T03:27:16;12.77;;;2.30;;
32323;SDS011;25666;44.350;9.222;2023-04-15T03:29:42;21.67;;;4.22;;
32323;SDS011;25666;44.350;9.222;2023-04-15T03:32:08;14.82;;;1.83;;
32323;SDS011;25666;44.350;9.222;2023-04-15T03:34:33;17.73;;;2.58;;
32323;SDS011;25666;44.350;9.222;2023-04-15T03:36:59;19.48;;;2.30;;
32323;SDS011;25666;44.350;9.222;2023-04-15T03:39:25;17.23;;;2.67;;
32323;SDS011;25666;44.350;9.222;2023-04-15T03:41:51;14.70;;;2.58;;
32323;SDS011;25666;44.350;9.222;2023-04-15T03:44:16;14.25;;;3.13;;
32323;SDS011;25666;44.350;9.222;2023-04-15T03:46:42;21.10;;;2.05;;
32323;SDS011;25666;44.350;9.222;2023-04-15T03:49:07;19.70;;;2.10;;
32323;SDS011;25666;44.350;9.222;2023-04-15T03:51:33;16.48;;;2.67;;
32323;SDS011;25666;44.350;9.222;2023-04-15T03:53:58;14.32;;;2.53;;
32323;SDS011;25666;44.350;9.222;2023-04-15T03:56:24;10.15;;;2.17;;
32323;SDS011;25666;44.350;9.222;2023-04-15T03:58:49;14.65;;;1.98;;
32323;SDS011;25666;44.350;9.222;2023-04-15T04:01:15;19.08;;;2.72;;
32323;SDS011;25666;44.350;9.222;2023-04-15T04:03:41;16.90;;;2.20;;
32323;SDS011;25666;44.350;9.222;2023-04-15T04:06:06;16.60;;;2.25;;
32323;SDS011;25666;44.350;9.222;2023-04-15T04:08:32;12.80;;;2.08;;
32323;SDS011;25666;44.350;9.222;2023-04-15T04:10:57;11.60;;;2.55;;
32323;SDS011;25666;44.350;9.222;2023-04-15T04:13:23;21.25;;;2.65;;
32323;SDS011;25666;44.350;9.222;2023-04-15T04:15:48;11.05;;;3.10;;
32323;SDS011;25666;44.350;9.222;2023-04-15T04:18:14;14.20;;;2.70;;
32323;SDS011;25666;44.350;9.222;2023-04-15T04:20:40;18.40;;;3.10;;
32323;SDS011;25666;44.350;9.222;2023-04-15T04:23:05;23.23;;;3.90;;
32323;SDS011;25666;44.350;9.222;2023-04-15T04:25:31;17.77;;;2.80;;
32323;SDS011;25666;44.350;9.222;2023-04-15T04:27:57;15.70;;;4.00;;
32323;SDS011;25666;44.350;9.222;2023-04-15T04:30:23;23.98;;;7.38;;
32323;SDS011;25666;44.350;9.222;2023-04-15T04:32:48;29.50;;;6.68;;
32323;SDS011;25666;44.350;9.222;2023-04-15T04:35:15;32.00;;;6.85;;
32323;SDS011;25666;44.350;9.222;2023-04-15T04:37:41;20.92;;;5.68;;
32323;SDS011;25666;44.350;9.222;2023-04-15T04:40:07;23.58;;;6.40;;
32323;SDS011;25666;44.350;9.222;2023-04-15T04:42:33;26.52;;;8.70;;
32323;SDS011;25666;44.350;9.222;2023-04-15T04:44:59;53.03;;;14.27;;
32323;SDS011;25666;44.350;9.222;2023-04-15T04:47:24;77.57;;;27.73;;
32323;SDS011;25666;44.350;9.222;2023-04-15T04:49:49;92.60;;;31.10;;
32323;SDS011;25666;44.350;9.222;2023-04-15T04:52:15;56.75;;;18.23;;
32323;SDS011;25666;44.350;9.222;2023-04-15T04:54:41;38.30;;;15.90;;
32323;SDS011;25666;44.350;9.222;2023-04-15T04:57:06;49.50;;;13.15;;
32323;SDS011;25666;44.350;9.222;2023-04-15T04:59:32;145.45;;;41.03;;
32323;SDS011;25666;44.350;9.222;2023-04-15T05:02:22;318.08;;;98.18;;
32323;SDS011;25666;44.350;9.222;2023-04-15T05:04:48;333.63;;;103.38;;
32323;SDS011;25666;44.350;9.222;2023-04-15T05:07:16;293.05;;;89.32;;
32323;SDS011;25666;44.350;9.222;2023-04-15T05:09:41;271.77;;;89.95;;
32323;SDS011;25666;44.350;9.222;2023-04-15T05:12:07;236.02;;;73.57;;
32323;SDS011;25666;44.350;9.222;2023-04-15T05:14:33;354.98;;;108.38;;
32323;SDS011;25666;44.350;9.222;2023-04-15T05:16:58;299.33;;;94.32;;
32323;SDS011;25666;44.350;9.222;2023-04-15T05:19:24;348.92;;;108.90;;
32323;SDS011;25666;44.350;9.222;2023-04-15T05:21:49;247.00;;;80.03;;
32323;SDS011;25666;44.350;9.222;2023-04-15T05:24:15;212.80;;;67.05;;
32323;SDS011;25666;44.350;9.222;2023-04-15T05:26:41;176.05;;;56.58;;
32323;SDS011;25666;44.350;9.222;2023-04-15T05:29:06;150.93;;;49.83;;
32323;SDS011;25666;44.350;9.222;2023-04-15T05:31:32;161.23;;;49.33;;
32323;SDS011;25666;44.350;9.222;2023-04-15T05:33:57;158.95;;;51.45;;
32323;SDS011;25666;44.350;9.222;2023-04-15T05:36:23;135.00;;;42.55;;
32323;SDS011;25666;44.350;9.222;2023-04-15T05:38:48;141.05;;;44.50;;
32323;SDS011;25666;44.350;9.222;2023-04-15T05:41:14;126.22;;;43.22;;
32323;SDS011;25666;44.350;9.222;2023-04-15T05:43:40;101.07;;;36.58;;
32323;SDS011;25666;44.350;9.222;2023-04-15T05:46:06;117.13;;;40.50;;
32323;SDS011;25666;44.350;9.222;2023-04-15T05:48:32;104.22;;;35.10;;
32323;SDS011;25666;44.350;9.222;2023-04-15T05:50:58;82.25;;;31.90;;
32323;SDS011;25666;44.350;9.222;2023-04-15T05:53:24;76.75;;;29.88;;
32323;SDS011;25666;44.350;9.222;2023-04-15T05:55:50;53.60;;;18.92;;
32323;SDS011;25666;44.350;9.222;2023-04-15T05:58:16;44.90;;;16.08;;
32323;SDS011;25666;44.350;9.222;2023-04-15T06:00:42;43.88;;;13.65;;
32323;SDS011;25666;44.350;9.222;2023-04-15T06:03:09;27.15;;;10.02;;
32323;SDS011;25666;44.350;9.222;2023-04-15T06:05:35;11.68;;;4.97;;
32323;SDS011;25666;44.350;9.222;2023-04-15T06:08:01;12.25;;;4.13;;
32323;SDS011;25666;44.350;9.222;2023-04-15T06:10:26;14.32;;;4.03;;
32323;SDS011;25666;44.350;9.222;2023-04-15T06:12:52;10.80;;;3.30;;
32323;SDS011;25666;44.350;9.222;2023-04-15T06:15:18;14.13;;;3.05;;
32323;SDS011;25666;44.350;9.222;2023-04-15T06:17:43;7.97;;;2.90;;
32323;SDS011;25666;44.350;9.222;2023-04-15T06:20:09;6.93;;;3.00;;
32323;SDS011;25666;44.350;9.222;2023-04-15T06:22:35;13.30;;;2.08;;
32323;SDS011;25666;44.350;9.222;2023-04-15T06:25:02;10.55;;;2.42;;
32323;SDS011;25666;44.350;9.222;2023-04-15T06:27:28;5.53;;;1.80;;
32323;SDS011;25666;44.350;9.222;2023-04-15T06:29:53;10.63;;;3.03;;
32323;SDS011;25666;44.350;9.222;2023-04-15T06:32:18;9.80;;;2.38;;
32323;SDS011;25666;44.350;9.222;2023-04-15T06:34:44;3.45;;;1.52;;
32323;SDS011;25666;44.350;9.222;2023-04-15T06:37:09;4.82;;;1.73;;
32323;SDS011;25666;44.350;9.222;2023-04-15T06:39:39;6.63;;;1.83;;
32323;SDS011;25666;44.350;9.222;2023-04-15T06:42:05;4.88;;;1.88;;
32323;SDS011;25666;44.350;9.222;2023-04-15T06:44:30;10.23;;;1.60;;
32323;SDS011;25666;44.350;9.222;2023-04-15T06:46:56;4.38;;;1.42;;
32323;SDS011;25666;44.350;9.222;2023-04-15T06:49:21;5.05;;;1.77;;
32323;SDS011;25666;44.350;9.222;2023-04-15T06:51:47;5.40;;;1.38;;
32323;SDS011;25666;44.350;9.222;2023-04-15T06:54:12;3.78;;;1.70;;
32323;SDS011;25666;44.350;9.222;2023-04-15T06:56:38;6.57;;;1.25;;
32323;SDS011;25666;44.350;9.222;2023-04-15T06:59:03;3.65;;;1.02;;
32323;SDS011;25666;44.350;9.222;2023-04-15T07:01:29;5.28;;;1.40;;
32323;SDS011;25666;44.350;9.222;2023-04-15T07:03:54;4.28;;;1.20;;
32323;SDS011;25666;44.350;9.222;2023-04-15T07:06:20;8.20;;;1.63;;
32323;SDS011;25666;44.350;9.222;2023-04-15T07:08:46;3.00;;;0.90;;
32323;SDS011;25666;44.350;9.222;2023-04-15T07:11:11;4.70;;;0.90;;
32323;SDS011;25666;44.350;9.222;2023-04-15T07:13:37;8.90;;;1.30;;
32323;SDS011;25666;44.350;9.222;2023-04-15T07:16:02;2.60;;;1.00;;
32323;SDS011;25666;44.350;9.222;2023-04-15T07:18:28;2.60;;;0.90;;
32323;SDS011;25666;44.350;9.222;2023-04-15T07:20:53;2.63;;;0.77;;
32323;SDS011;25666;44.350;9.222;2023-04-15T07:23:20;7.10;;;1.17;;
32323;SDS011;25666;44.350;9.222;2023-04-15T07:25:45;3.92;;;0.95;;
32323;SDS011;25666;44.350;9.222;2023-04-15T07:28:11;2.78;;;0.68;;
32323;SDS011;25666;44.350;9.222;2023-04-15T07:30:37;5.32;;;0.90;;
32323;SDS011;25666;44.350;9.222;2023-04-15T07:33:02;5.75;;;1.10;;
32323;SDS011;25666;44.350;9.222;2023-04-15T07:35:28;7.25;;;1.55;;
32323;SDS011;25666;44.350;9.222;2023-04-15T07:37:54;5.25;;;0.93;;
32323;SDS011;25666;44.350;9.222;2023-04-15T07:40:19;4.32;;;0.93;;
32323;SDS011;25666;44.350;9.222;2023-04-15T07:42:46;3.80;;;1.48;;
32323;SDS011;25666;44.350;9.222;2023-04-15T07:45:13;8.93;;;1.33;;
32323;SDS011;25666;44.350;9.222;2023-04-15T07:47:39;3.25;;;0.88;;
32323;SDS011;25666;44.350;9.222;2023-04-15T07:50:06;5.15;;;1.02;;
32323;SDS011;25666;44.350;9.222;2023-04-15T07:52:32;5.50;;;0.90;;
32323;SDS011;25666;44.350;9.222;2023-04-15T07:55:04;9.52;;;1.42;;
32323;SDS011;25666;44.350;9.222;2023-04-15T07:57:36;4.85;;;0.88;;
32323;SDS011;25666;44.350;9.222;2023-04-15T08:00:02;11.02;;;1.20;;
32323;SDS011;25666;44.350;9.222;2023-04-15T08:02:38;9.27;;;2.05;;
32323;SDS011;25666;44.350;9.222;2023-04-15T08:05:04;12.00;;;1.30;;
32323;SDS011;25666;44.350;9.222;2023-04-15T08:07:30;10.82;;;1.42;;
32323;SDS011;25666;44.350;9.222;2023-04-15T08:09:55;4.30;;;0.90;;
32323;SDS011;25666;44.350;9.222;2023-04-15T08:12:21;4.50;;;1.05;;
32323;SDS011;25666;44.350;9.222;2023-04-15T08:14:47;3.50;;;0.98;;
32323;SDS011;25666;44.350;9.222;2023-04-15T08:17:15;4.47;;;0.75;;
32323;SDS011;25666;44.350;9.222;2023-04-15T08:19:41;4.15;;;0.82;;
32323;SDS011;25666;44.350;9.222;2023-04-15T08:22:06;6.07;;;1.02;;
32323;SDS011;25666;44.350;9.222;2023-04-15T08:24:32;2.95;;;0.80;;
32323;SDS011;25666;44.350;9.222;2023-04-15T08:26:58;10.07;;;1.10;;
32323;SDS011;25666;44.350;9.222;2023-04-15T08:29:24;3.17;;;0.80;;
32323;SDS011;25666;44.350;9.222;2023-04-15T08:31:49;5.25;;;1.27;;
32323;SDS011;25666;44.350;9.222;2023-04-15T08:34:15;6.32;;;0.98;;
32323;SDS011;25666;44.350;9.222;2023-04-15T08:36:41;5.38;;;0.80;;
32323;SDS011;25666;44.350;9.222;2023-04-15T08:39:07;7.75;;;0.85;;
32323;SDS011;25666;44.350;9.222;2023-04-15T08:41:44;4.57;;;1.00;;
32323;SDS011;25666;44.350;9.222;2023-04-15T08:44:12;4.50;;;0.57;;
32323;SDS011;25666;44.350;9.222;2023-04-15T08:46:38;4.63;;;0.80;;
32323;SDS011;25666;44.350;9.222;2023-04-15T08:49:10;3.22;;;1.35;;
32323;SDS011;25666;44.350;9.222;2023-04-15T08:51:39;6.80;;;1.70;;
32323;SDS011;25666;44.350;9.222;2023-04-15T08:54:06;6.47;;;0.98;;
32323;SDS011;25666;44.350;9.222;2023-04-15T08:56:33;3.72;;;0.85;;
32323;SDS011;25666;44.350;9.222;2023-04-15T08:58:59;3.25;;;0.60;;
32323;SDS011;25666;44.350;9.222;2023-04-15T09:01:26;3.20;;;0.70;;
32323;SDS011;25666;44.350;9.222;2023-04-15T09:03:55;1.50;;;0.63;;
32323;SDS011;25666;44.350;9.222;2023-04-15T09:06:21;6.47;;;0.90;;
32323;SDS011;25666;44.350;9.222;2023-04-15T09:08:47;1.20;;;0.75;;
32323;SDS011;25666;44.350;9.222;2023-04-15T09:11:14;4.45;;;1.08;;
32323;SDS011;25666;44.350;9.222;2023-04-15T09:13:41;3.95;;;0.50;;
32323;SDS011;25666;44.350;9.222;2023-04-15T09:16:07;4.32;;;1.00;;
32323;SDS011;25666;44.350;9.222;2023-04-15T09:18:34;6.15;;;0.80;;
32323;SDS011;25666;44.350;9.222;2023-04-15T09:21:10;3.53;;;0.60;;
32323;SDS011;25666;44.350;9.222;2023-04-15T09:23:38;5.65;;;0.82;;
32323;SDS011;25666;44.350;9.222;2023-04-15T09:26:06;2.88;;;0.68;;
32323;SDS011;25666;44.350;9.222;2023-04-15T09:28:32;2.40;;;0.80;;
32323;SDS011;25666;44.350;9.222;2023-04-15T09:31:05;8.77;;;0.77;;
32323;SDS011;25666;44.350;9.222;2023-04-15T09:33:31;3.65;;;0.50;;
32323;SDS011;25666;44.350;9.222;2023-04-15T09:36:05;7.55;;;2.00;;
32323;SDS011;25666;44.350;9.222;2023-04-15T09:38:31;1.70;;;0.60;;
32323;SDS011;25666;44.350;9.222;2023-04-15T09:40:57;2.08;;;0.50;;
32323;SDS011;25666;44.350;9.222;2023-04-15T09:43:39;1.08;;;0.52;;
32323;SDS011;25666;44.350;9.222;2023-04-15T09:46:04;7.55;;;1.08;;
32323;SDS011;25666;44.350;9.222;2023-04-15T09:48:30;4.13;;;0.82;;
32323;SDS011;25666;44.350;9.222;2023-04-15T09:50:56;4.65;;;0.80;;
32323;SDS011;25666;44.350;9.222;2023-04-15T09:53:23;5.05;;;0.50;;
32323;SDS011;25666;44.350;9.222;2023-04-15T09:55:50;1.65;;;0.50;;
32323;SDS011;25666;44.350;9.222;2023-04-15T09:58:18;4.88;;;0.73;;
32323;SDS011;25666;44.350;9.222;2023-04-15T10:00:46;1.75;;;0.60;;
32323;SDS011;25666;44.350;9.222;2023-04-15T10:03:16;0.95;;;0.50;;
32323;SDS011;25666;44.350;9.222;2023-04-15T10:05:50;4.60;;;0.55;;
32323;SDS011;25666;44.350;9.222;2023-04-15T10:08:21;8.15;;;0.73;;
32323;SDS011;25666;44.350;9.222;2023-04-15T10:10:49;5.88;;;0.75;;
32323;SDS011;25666;44.350;9.222;2023-04-15T10:13:19;2.83;;;0.80;;
32323;SDS011;25666;44.350;9.222;2023-04-15T10:16:11;5.00;;;0.90;;
32323;SDS011;25666;44.350;9.222;2023-04-15T10:18:41;4.45;;;0.98;;
32323;SDS011;25666;44.350;9.222;2023-04-15T10:21:08;2.85;;;0.88;;
32323;SDS011;25666;44.350;9.222;2023-04-15T10:23:37;4.20;;;1.98;;
32323;SDS011;25666;44.350;9.222;2023-04-15T10:26:03;1.58;;;0.45;;
32323;SDS011;25666;44.350;9.222;2023-04-15T10:28:30;2.55;;;0.47;;
32323;SDS011;25666;44.350;9.222;2023-04-15T10:30:56;6.22;;;0.98;;
32323;SDS011;25666;44.350;9.222;2023-04-15T10:33:23;2.20;;;0.65;;
32323;SDS011;25666;44.350;9.222;2023-04-15T10:35:50;3.28;;;0.60;;
32323;SDS011;25666;44.350;9.222;2023-04-15T10:41:17;2.33;;;0.90;;
32323;SDS011;25666;44.350;9.222;2023-04-15T10:49:09;1.27;;;0.70;;
32323;SDS011;25666;44.350;9.222;2023-04-15T10:51:42;2.97;;;0.70;;
32323;SDS011;25666;44.350;9.222;2023-04-15T10:54:12;5.15;;;0.93;;
32323;SDS011;25666;44.350;9.222;2023-04-15T10:56:40;3.13;;;0.70;;
32323;SDS011;25666;44.350;9.222;2023-04-15T10:59:07;3.08;;;0.75;;
32323;SDS011;25666;44.350;9.222;2023-04-15T11:07:39;4.03;;;0.60;;
32323;SDS011;25666;44.350;9.222;2023-04-15T11:12:45;1.17;;;0.70;;
32323;SDS011;25666;44.350;9.222;2023-04-15T11:18:09;5.20;;;1.27;;
32323;SDS011;25666;44.350;9.222;2023-04-15T11:20:42;4.40;;;0.77;;
32323;SDS011;25666;44.350;9.222;2023-04-15T11:23:12;5.70;;;0.95;;
32323;SDS011;25666;44.350;9.222;2023-04-15T11:25:39;5.40;;;1.20;;
32323;SDS011;25666;44.350;9.222;2023-04-15T11:28:04;6.03;;;1.13;;
32323;SDS011;25666;44.350;9.222;2023-04-15T11:30:35;2.78;;;0.70;;
32323;SDS011;25666;44.350;9.222;2023-04-15T11:33:05;5.05;;;0.82;;
32323;SDS011;25666;44.350;9.222;2023-04-15T11:35:34;5.63;;;0.90;;
32323;SDS011;25666;44.350;9.222;2023-04-15T11:38:04;3.47;;;1.00;;
32323;SDS011;25666;44.350;9.222;2023-04-15T11:43:03;4.55;;;1.15;;
32323;SDS011;25666;44.350;9.222;2023-04-15T11:45:32;3.38;;;0.80;;
32323;SDS011;25666;44.350;9.222;2023-04-15T11:50:33;5.05;;;1.02;;
32323;SDS011;25666;44.350;9.222;2023-04-15T11:53:01;5.55;;;1.23;;
32323;SDS011;25666;44.350;9.222;2023-04-15T11:55:28;1.73;;;0.85;;
32323;SDS011;25666;44.350;9.222;2023-04-15T12:00:47;8.85;;;1.27;;
32323;SDS011;25666;44.350;9.222;2023-04-15T12:03:22;11.30;;;0.90;;
32323;SDS011;25666;44.350;9.222;2023-04-15T12:06:06;4.18;;;1.00;;
32323;SDS011;25666;44.350;9.222;2023-04-15T12:08:50;8.35;;;1.58;;
32323;SDS011;25666;44.350;9.222;2023-04-15T12:14:04;3.83;;;1.08;;
32323;SDS011;25666;44.350;9.222;2023-04-15T12:16:33;2.03;;;0.68;;
32323;SDS011;25666;44.350;9.222;2023-04-15T12:19:04;4.50;;;1.00;;
32323;SDS011;25666;44.350;9.222;2023-04-15T12:21:33;4.13;;;1.00;;
32323;SDS011;25666;44.350;9.222;2023-04-15T12:24:03;6.53;;;1.20;;
32323;SDS011;25666;44.350;9.222;2023-04-15T12:26:35;7.18;;;1.40;;
32323;SDS011;25666;44.350;9.222;2023-04-15T12:29:06;4.50;;;1.25;;
32323;SDS011;25666;44.350;9.222;2023-04-15T12:31:33;4.30;;;1.10;;
32323;SDS011;25666;44.350;9.222;2023-04-15T12:34:00;6.35;;;1.15;;
32323;SDS011;25666;44.350;9.222;2023-04-15T12:36:27;6.97;;;1.13;;
32323;SDS011;25666;44.350;9.222;2023-04-15T12:38:52;7.97;;;0.88;;
32323;SDS011;25666;44.350;9.222;2023-04-15T12:41:21;5.53;;;1.38;;
32323;SDS011;25666;44.350;9.222;2023-04-15T12:43:48;5.78;;;1.67;;
32323;SDS011;25666;44.350;9.222;2023-04-15T12:46:15;17.40;;;1.95;;
32323;SDS011;25666;44.350;9.222;2023-04-15T12:48:40;5.57;;;1.48;;
32323;SDS011;25666;44.350;9.222;2023-04-15T12:51:06;4.13;;;1.20;;
32323;SDS011;25666;44.350;9.222;2023-04-15T12:53:31;7.13;;;1.77;;
32323;SDS011;25666;44.350;9.222;2023-04-15T12:55:57;9.30;;;1.27;;
32323;SDS011;25666;44.350;9.222;2023-04-15T12:58:22;9.60;;;1.38;;
32323;SDS011;25666;44.350;9.222;2023-04-15T13:00:48;6.55;;;1.10;;
32323;SDS011;25666;44.350;9.222;2023-04-15T13:03:14;2.95;;;0.80;;
32323;SDS011;25666;44.350;9.222;2023-04-15T13:05:40;7.78;;;1.45;;
32323;SDS011;25666;44.350;9.222;2023-04-15T13:08:06;4.13;;;0.98;;
32323;SDS011;25666;44.350;9.222;2023-04-15T13:10:31;8.55;;;1.40;;
32323;SDS011;25666;44.350;9.222;2023-04-15T13:12:58;9.60;;;1.20;;
32323;SDS011;25666;44.350;9.222;2023-04-15T13:15:23;9.93;;;2.10;;
32323;SDS011;25666;44.350;9.222;2023-04-15T13:17:50;5.22;;;0.98;;
32323;SDS011;25666;44.350;9.222;2023-04-15T13:20:15;6.25;;;1.55;;
32323;SDS011;25666;44.350;9.222;2023-04-15T13:22:41;6.85;;;1.30;;
32323;SDS011;25666;44.350;9.222;2023-04-15T13:25:07;6.63;;;0.98;;
32323;SDS011;25666;44.350;9.222;2023-04-15T13:27:33;7.00;;;1.58;;
32323;SDS011;25666;44.350;9.222;2023-04-15T13:29:58;5.88;;;0.90;;
32323;SDS011;25666;44.350;9.222;2023-04-15T13:32:24;7.63;;;1.20;;
32323;SDS011;25666;44.350;9.222;2023-04-15T13:34:49;3.85;;;1.45;;
32323;SDS011;25666;44.350;9.222;2023-04-15T13:37:15;8.77;;;1.75;;
32323;SDS011;25666;44.350;9.222;2023-04-15T13:39:41;6.65;;;1.20;;
32323;SDS011;25666;44.350;9.222;2023-04-15T13:42:07;3.65;;;0.88;;
32323;SDS011;25666;44.350;9.222;2023-04-15T13:44:33;6.00;;;1.05;;
32323;SDS011;25666;44.350;9.222;2023-04-15T13:46:59;9.75;;;1.60;;
32323;SDS011;25666;44.350;9.222;2023-04-15T13:49:24;8.98;;;1.88;;
32323;SDS011;25666;44.350;9.222;2023-04-15T13:51:50;7.20;;;1.52;;
32323;SDS011;25666;44.350;9.222;2023-04-15T13:54:16;2.90;;;1.08;;
32323;SDS011;25666;44.350;9.222;2023-04-15T13:56:41;6.85;;;2.28;;
32323;SDS011;25666;44.350;9.222;2023-04-15T13:59:07;6.20;;;1.45;;
32323;SDS011;25666;44.350;9.222;2023-04-15T14:01:33;4.53;;;1.10;;
32323;SDS011;25666;44.350;9.222;2023-04-15T14:03:59;4.63;;;1.52;;
32323;SDS011;25666;44.350;9.222;2023-04-15T14:06:25;3.72;;;1.00;;
32323;SDS011;25666;44.350;9.222;2023-04-15T14:08:52;3.08;;;0.82;;
32323;SDS011;25666;44.350;9.222;2023-04-15T14:11:17;4.28;;;1.00;;
32323;SDS011;25666;44.350;9.222;2023-04-15T14:13:43;8.73;;;1.17;;
32323;SDS011;25666;44.350;9.222;2023-04-15T14:16:08;21.60;;;7.57;;
32323;SDS011;25666;44.350;9.222;2023-04-15T14:18:34;18.33;;;4.50;;
32323;SDS011;25666;44.350;9.222;2023-04-15T14:21:01;8.30;;;2.20;;
32323;SDS011;25666;44.350;9.222;2023-04-15T14:23:26;6.25;;;2.83;;
32323;SDS011;25666;44.350;9.222;2023-04-15T14:25:52;5.97;;;2.10;;
32323;SDS011;25666;44.350;9.222;2023-04-15T14:28:17;7.53;;;2.22;;
32323;SDS011;25666;44.350;9.222;2023-04-15T14:30:43;3.85;;;1.80;;
32323;SDS011;25666;44.350;9.222;2023-04-15T14:33:08;5.00;;;1.63;;
32323;SDS011;25666;44.350;9.222;2023-04-15T14:35:34;3.70;;;2.10;;
32323;SDS011;25666;44.350;9.222;2023-04-15T14:38:00;2.78;;;1.27;;
32323;SDS011;25666;44.350;9.222;2023-04-15T14:40:25;5.13;;;1.52;;
32323;SDS011;25666;44.350;9.222;2023-04-15T14:42:51;4.60;;;1.48;;
32323;SDS011;25666;44.350;9.222;2023-04-15T14:45:16;6.13;;;1.30;;
32323;SDS011;25666;44.350;9.222;2023-04-15T14:47:42;3.22;;;0.75;;
32323;SDS011;25666;44.350;9.222;2023-04-15T14:50:08;2.35;;;0.95;;
32323;SDS011;25666;44.350;9.222;2023-04-15T14:52:34;1.80;;;0.90;;
32323;SDS011;25666;44.350;9.222;2023-04-15T14:55:05;6.00;;;1.10;;
32323;SDS011;25666;44.350;9.222;2023-04-15T14:57:32;2.00;;;1.00;;
32323;SDS011;25666;44.350;9.222;2023-04-15T14:59:57;3.65;;;1.10;;
32323;SDS011;25666;44.350;9.222;2023-04-15T15:02:23;9.23;;;2.92;;
32323;SDS011;25666;44.350;9.222;2023-04-15T15:04:48;6.63;;;1.63;;
32323;SDS011;25666;44.350;9.222;2023-04-15T15:07:14;6.95;;;2.35;;
32323;SDS011;25666;44.350;9.222;2023-04-15T15:09:40;8.80;;;2.13;;
32323;SDS011;25666;44.350;9.222;2023-04-15T15:12:06;6.28;;;1.75;;